Portada
METAR-TAF:

METAR-TAF

Aeropuertos :

Burlington, Iowa, Estados Unidos

latitud: 40-46-22N, longitud: 091-07-31W, altitud: 212 m

Observación

El informe se hizo hace 15 minutos, a las 10:48 UTC
Viento 4 kt del este-noreste
Temperatura 5°C
Humedad 75%
Presión 1017 hPa
Visibilidad: 16.1 km
Cielo despejado

METAR: KBRL 311048Z 06004KT 10SM CLR 05/01 A3002

Hora: 06:03 (11:03 UTC)

Pronóstico

El informe se hizo hace 5 horas y 29 minutos, a las 05:34 UTC
Pronóstico válido del 31 a las 06 UTC al 01 a las 06 UTC
Viento 4 kt con dirección variable
Visibilidad: 10 km
Cielo nuboso a una altura de 25000 ft
A partir de las 31 a las 1700 UTC
Viento 7 kt del noreste
Visibilidad: 10 km
Nubes dispersas a una altura de 5000 ft
A partir de las 01 a las 0100 UTC
Viento 6 kt del noreste
Visibilidad: 10 km
Escasas nubes a una altura de 25000 ft

TAF: KBRL 310534Z 3106/0106 VRB04KT P6SM BKN250 FM311700 05007KT P6SM SCT050 FM010100 05006KT P6SM FEW250

Observaciones y pronósticos meteorológicos de más de 4000 aeropuertos (mensajes METAR y TAF).

Los puntos amarillos y rojos representan las estaciones disponibles.

Ponga el ratón en el punto deseado para ver el nombre de la estación.

Haga clic para ver las observaciones y los pronósticos meteorológicos.

Para cambiar el mapa : haga clic en los botones verdes con una cruz de color negro para hacer un zoom, en el botón verde con un guión para alejar o en las flechas verdes para mapas adyacentes.


METAR-TAF: